sensor_id;sensor_type;location;lat;lon;timestamp;P1;durP1;ratioP1;P2;durP2;ratioP2
7444;SDS011;3764;48.126;11.594;2023-02-28T00:00:36;4.38;;;3.90;;
7444;SDS011;3764;48.126;11.594;2023-02-28T00:03:04;6.47;;;3.25;;
7444;SDS011;3764;48.126;11.594;2023-02-28T00:05:31;5.50;;;3.90;;
7444;SDS011;3764;48.126;11.594;2023-02-28T00:07:59;8.70;;;4.00;;
7444;SDS011;3764;48.126;11.594;2023-02-28T00:10:28;5.72;;;3.65;;
7444;SDS011;3764;48.126;11.594;2023-02-28T00:12:59;4.63;;;3.40;;
7444;SDS011;3764;48.126;11.594;2023-02-28T00:15:28;3.97;;;2.95;;
7444;SDS011;3764;48.126;11.594;2023-02-28T00:17:55;9.10;;;3.45;;
7444;SDS011;3764;48.126;11.594;2023-02-28T00:20:23;5.45;;;3.80;;
7444;SDS011;3764;48.126;11.594;2023-02-28T00:22:51;4.47;;;3.45;;
7444;SDS011;3764;48.126;11.594;2023-02-28T00:25:19;5.90;;;4.40;;
7444;SDS011;3764;48.126;11.594;2023-02-28T00:27:47;6.15;;;3.30;;
7444;SDS011;3764;48.126;11.594;2023-02-28T00:32:45;6.50;;;3.95;;
7444;SDS011;3764;48.126;11.594;2023-02-28T00:35:12;4.40;;;3.22;;
7444;SDS011;3764;48.126;11.594;2023-02-28T00:37:40;4.75;;;4.22;;
7444;SDS011;3764;48.126;11.594;2023-02-28T00:40:08;4.38;;;3.92;;
7444;SDS011;3764;48.126;11.594;2023-02-28T00:42:37;5.95;;;3.33;;
7444;SDS011;3764;48.126;11.594;2023-02-28T00:45:04;6.22;;;3.97;;
7444;SDS011;3764;48.126;11.594;2023-02-28T00:47:33;5.50;;;3.55;;
7444;SDS011;3764;48.126;11.594;2023-02-28T00:50:02;3.22;;;2.92;;
7444;SDS011;3764;48.126;11.594;2023-02-28T00:52:29;7.38;;;3.85;;
7444;SDS011;3764;48.126;11.594;2023-02-28T00:54:57;6.07;;;3.83;;
7444;SDS011;3764;48.126;11.594;2023-02-28T00:57:24;8.75;;;4.15;;
7444;SDS011;3764;48.126;11.594;2023-02-28T00:59:51;4.35;;;3.50;;
7444;SDS011;3764;48.126;11.594;2023-02-28T01:02:19;5.20;;;4.05;;
7444;SDS011;3764;48.126;11.594;2023-02-28T01:04:46;6.15;;;4.25;;
7444;SDS011;3764;48.126;11.594;2023-02-28T01:07:15;4.15;;;3.55;;
7444;SDS011;3764;48.126;11.594;2023-02-28T01:09:42;9.43;;;3.90;;
7444;SDS011;3764;48.126;11.594;2023-02-28T01:12:09;5.93;;;3.97;;
7444;SDS011;3764;48.126;11.594;2023-02-28T01:14:36;6.45;;;4.15;;
7444;SDS011;3764;48.126;11.594;2023-02-28T01:17:03;6.65;;;3.70;;
7444;SDS011;3764;48.126;11.594;2023-02-28T01:19:30;5.50;;;3.70;;
7444;SDS011;3764;48.126;11.594;2023-02-28T01:22:00;6.97;;;4.60;;
7444;SDS011;3764;48.126;11.594;2023-02-28T01:24:29;4.70;;;3.20;;
7444;SDS011;3764;48.126;11.594;2023-02-28T01:26:56;5.18;;;4.03;;
7444;SDS011;3764;48.126;11.594;2023-02-28T01:29:23;4.70;;;3.30;;
7444;SDS011;3764;48.126;11.594;2023-02-28T01:31:50;5.72;;;3.40;;
7444;SDS011;3764;48.126;11.594;2023-02-28T01:34:17;4.85;;;4.35;;
7444;SDS011;3764;48.126;11.594;2023-02-28T01:36:45;5.07;;;4.22;;
7444;SDS011;3764;48.126;11.594;2023-02-28T01:39:12;6.57;;;3.85;;
7444;SDS011;3764;48.126;11.594;2023-02-28T01:41:41;5.53;;;4.30;;
7444;SDS011;3764;48.126;11.594;2023-02-28T01:47:08;6.10;;;4.00;;
7444;SDS011;3764;48.126;11.594;2023-02-28T01:49:35;7.32;;;3.85;;
7444;SDS011;3764;48.126;11.594;2023-02-28T01:52:03;5.25;;;3.45;;
7444;SDS011;3764;48.126;11.594;2023-02-28T01:54:31;7.25;;;4.40;;
7444;SDS011;3764;48.126;11.594;2023-02-28T01:57:02;7.03;;;4.40;;
7444;SDS011;3764;48.126;11.594;2023-02-28T01:59:33;9.60;;;5.13;;
7444;SDS011;3764;48.126;11.594;2023-02-28T02:02:05;6.25;;;4.57;;
7444;SDS011;3764;48.126;11.594;2023-02-28T02:04:34;8.65;;;5.30;;
7444;SDS011;3764;48.126;11.594;2023-02-28T02:07:06;9.52;;;4.68;;
7444;SDS011;3764;48.126;11.594;2023-02-28T02:09:34;6.32;;;4.53;;
7444;SDS011;3764;48.126;11.594;2023-02-28T02:12:03;6.45;;;4.07;;
7444;SDS011;3764;48.126;11.594;2023-02-28T02:14:43;5.30;;;3.80;;
7444;SDS011;3764;48.126;11.594;2023-02-28T02:17:20;5.53;;;4.60;;
7444;SDS011;3764;48.126;11.594;2023-02-28T02:26:18;4.18;;;3.75;;
7444;SDS011;3764;48.126;11.594;2023-02-28T02:29:34;5.80;;;4.15;;
7444;SDS011;3764;48.126;11.594;2023-02-28T02:32:14;5.75;;;4.00;;
7444;SDS011;3764;48.126;11.594;2023-02-28T02:35:01;4.50;;;3.90;;
7444;SDS011;3764;48.126;11.594;2023-02-28T02:37:40;5.75;;;4.15;;
7444;SDS011;3764;48.126;11.594;2023-02-28T02:40:14;7.47;;;4.50;;
7444;SDS011;3764;48.126;11.594;2023-02-28T02:42:47;5.80;;;4.32;;
7444;SDS011;3764;48.126;11.594;2023-02-28T02:45:22;4.97;;;4.13;;
7444;SDS011;3764;48.126;11.594;2023-02-28T02:47:53;5.88;;;4.60;;
7444;SDS011;3764;48.126;11.594;2023-02-28T02:50:25;5.32;;;4.07;;
7444;SDS011;3764;48.126;11.594;2023-02-28T02:52:57;5.97;;;3.80;;
7444;SDS011;3764;48.126;11.594;2023-02-28T02:55:27;5.63;;;4.82;;
7444;SDS011;3764;48.126;11.594;2023-02-28T02:57:57;5.88;;;4.25;;
7444;SDS011;3764;48.126;11.594;2023-02-28T03:00:26;4.75;;;4.35;;
7444;SDS011;3764;48.126;11.594;2023-02-28T03:02:59;9.40;;;4.45;;
7444;SDS011;3764;48.126;11.594;2023-02-28T03:05:30;6.25;;;4.15;;
7444;SDS011;3764;48.126;11.594;2023-02-28T03:08:03;8.18;;;4.28;;
7444;SDS011;3764;48.126;11.594;2023-02-28T03:10:32;6.25;;;4.90;;
7444;SDS011;3764;48.126;11.594;2023-02-28T03:13:16;9.02;;;4.82;;
7444;SDS011;3764;48.126;11.594;2023-02-28T03:15:58;5.28;;;4.03;;
7444;SDS011;3764;48.126;11.594;2023-02-28T03:18:47;7.60;;;5.75;;
7444;SDS011;3764;48.126;11.594;2023-02-28T03:21:26;9.63;;;4.28;;
7444;SDS011;3764;48.126;11.594;2023-02-28T03:24:00;6.28;;;4.53;;
7444;SDS011;3764;48.126;11.594;2023-02-28T03:26:33;8.20;;;5.30;;
7444;SDS011;3764;48.126;11.594;2023-02-28T03:29:07;10.30;;;4.78;;
7444;SDS011;3764;48.126;11.594;2023-02-28T03:31:43;6.38;;;4.57;;
7444;SDS011;3764;48.126;11.594;2023-02-28T03:34:15;9.40;;;5.28;;
7444;SDS011;3764;48.126;11.594;2023-02-28T03:36:49;6.13;;;4.40;;
7444;SDS011;3764;48.126;11.594;2023-02-28T03:39:20;5.65;;;4.30;;
7444;SDS011;3764;48.126;11.594;2023-02-28T03:41:52;7.75;;;4.70;;
7444;SDS011;3764;48.126;11.594;2023-02-28T03:47:00;6.97;;;4.70;;
7444;SDS011;3764;48.126;11.594;2023-02-28T03:49:31;5.38;;;4.60;;
7444;SDS011;3764;48.126;11.594;2023-02-28T03:52:04;8.20;;;5.47;;
7444;SDS011;3764;48.126;11.594;2023-02-28T03:54:35;9.60;;;5.60;;
7444;SDS011;3764;48.126;11.594;2023-02-28T03:57:08;7.75;;;4.78;;
7444;SDS011;3764;48.126;11.594;2023-02-28T03:59:42;8.48;;;5.20;;
7444;SDS011;3764;48.126;11.594;2023-02-28T04:02:12;6.63;;;4.43;;
7444;SDS011;3764;48.126;11.594;2023-02-28T04:04:39;6.10;;;5.05;;
7444;SDS011;3764;48.126;11.594;2023-02-28T04:07:11;7.65;;;5.35;;
7444;SDS011;3764;48.126;11.594;2023-02-28T04:09:38;8.38;;;5.47;;
7444;SDS011;3764;48.126;11.594;2023-02-28T04:12:06;6.82;;;5.65;;
7444;SDS011;3764;48.126;11.594;2023-02-28T04:14:33;8.60;;;6.70;;
7444;SDS011;3764;48.126;11.594;2023-02-28T04:17:00;8.00;;;5.82;;
7444;SDS011;3764;48.126;11.594;2023-02-28T04:19:27;8.30;;;5.47;;
7444;SDS011;3764;48.126;11.594;2023-02-28T04:21:54;13.10;;;6.60;;
7444;SDS011;3764;48.126;11.594;2023-02-28T04:24:23;8.80;;;5.70;;
7444;SDS011;3764;48.126;11.594;2023-02-28T04:26:54;8.07;;;6.18;;
7444;SDS011;3764;48.126;11.594;2023-02-28T04:29:24;8.07;;;5.90;;
7444;SDS011;3764;48.126;11.594;2023-02-28T04:31:53;9.65;;;6.85;;
7444;SDS011;3764;48.126;11.594;2023-02-28T04:34:22;9.23;;;6.03;;
7444;SDS011;3764;48.126;11.594;2023-02-28T04:36:50;9.80;;;5.97;;
7444;SDS011;3764;48.126;11.594;2023-02-28T04:39:19;8.95;;;5.78;;
7444;SDS011;3764;48.126;11.594;2023-02-28T04:41:47;9.77;;;6.57;;
7444;SDS011;3764;48.126;11.594;2023-02-28T04:44:15;10.02;;;6.85;;
7444;SDS011;3764;48.126;11.594;2023-02-28T04:46:42;10.13;;;7.05;;
7444;SDS011;3764;48.126;11.594;2023-02-28T04:49:10;8.30;;;6.10;;
7444;SDS011;3764;48.126;11.594;2023-02-28T04:51:38;11.57;;;6.32;;
7444;SDS011;3764;48.126;11.594;2023-02-28T04:54:05;10.75;;;7.03;;
7444;SDS011;3764;48.126;11.594;2023-02-28T04:56:33;17.33;;;6.97;;
7444;SDS011;3764;48.126;11.594;2023-02-28T04:59:02;11.05;;;7.75;;
7444;SDS011;3764;48.126;11.594;2023-02-28T05:01:29;9.45;;;6.38;;
7444;SDS011;3764;48.126;11.594;2023-02-28T05:03:58;11.48;;;7.63;;
7444;SDS011;3764;48.126;11.594;2023-02-28T05:06:27;9.85;;;5.85;;
7444;SDS011;3764;48.126;11.594;2023-02-28T05:08:55;10.32;;;6.65;;
7444;SDS011;3764;48.126;11.594;2023-02-28T05:11:23;11.07;;;6.70;;
7444;SDS011;3764;48.126;11.594;2023-02-28T05:13:52;13.48;;;7.85;;
7444;SDS011;3764;48.126;11.594;2023-02-28T05:16:21;13.15;;;7.65;;
7444;SDS011;3764;48.126;11.594;2023-02-28T05:18:49;11.82;;;7.65;;
7444;SDS011;3764;48.126;11.594;2023-02-28T05:21:26;11.13;;;8.60;;
7444;SDS011;3764;48.126;11.594;2023-02-28T05:23:56;13.35;;;7.07;;
7444;SDS011;3764;48.126;11.594;2023-02-28T05:26:25;13.25;;;8.43;;
7444;SDS011;3764;48.126;11.594;2023-02-28T05:28:53;12.27;;;8.02;;
7444;SDS011;3764;48.126;11.594;2023-02-28T05:31:22;11.25;;;7.72;;
7444;SDS011;3764;48.126;11.594;2023-02-28T05:33:50;15.18;;;9.15;;
7444;SDS011;3764;48.126;11.594;2023-02-28T05:36:17;13.50;;;8.75;;
7444;SDS011;3764;48.126;11.594;2023-02-28T05:38:45;12.55;;;8.55;;
7444;SDS011;3764;48.126;11.594;2023-02-28T05:41:14;12.13;;;8.55;;
7444;SDS011;3764;48.126;11.594;2023-02-28T05:43:41;12.95;;;8.40;;
7444;SDS011;3764;48.126;11.594;2023-02-28T05:46:09;16.90;;;8.98;;
7444;SDS011;3764;48.126;11.594;2023-02-28T05:48:39;14.20;;;9.23;;
7444;SDS011;3764;48.126;11.594;2023-02-28T05:51:07;13.18;;;8.85;;
7444;SDS011;3764;48.126;11.594;2023-02-28T05:53:35;12.95;;;8.90;;
7444;SDS011;3764;48.126;11.594;2023-02-28T05:56:03;15.88;;;10.25;;
7444;SDS011;3764;48.126;11.594;2023-02-28T05:58:30;19.35;;;9.40;;
7444;SDS011;3764;48.126;11.594;2023-02-28T06:00:58;19.42;;;10.20;;
7444;SDS011;3764;48.126;11.594;2023-02-28T06:03:27;20.55;;;10.45;;
7444;SDS011;3764;48.126;11.594;2023-02-28T06:05:55;16.23;;;10.88;;
7444;SDS011;3764;48.126;11.594;2023-02-28T06:08:22;13.55;;;7.32;;
7444;SDS011;3764;48.126;11.594;2023-02-28T06:10:50;21.15;;;10.85;;
7444;SDS011;3764;48.126;11.594;2023-02-28T06:13:18;20.63;;;11.35;;
7444;SDS011;3764;48.126;11.594;2023-02-28T06:15:45;18.67;;;11.98;;
7444;SDS011;3764;48.126;11.594;2023-02-28T06:18:12;17.15;;;10.35;;
7444;SDS011;3764;48.126;11.594;2023-02-28T06:20:39;21.20;;;11.10;;
7444;SDS011;3764;48.126;11.594;2023-02-28T06:23:09;18.25;;;10.63;;
7444;SDS011;3764;48.126;11.594;2023-02-28T06:25:36;18.00;;;11.50;;
7444;SDS011;3764;48.126;11.594;2023-02-28T06:28:03;18.13;;;11.20;;
7444;SDS011;3764;48.126;11.594;2023-02-28T06:30:31;24.50;;;12.10;;
7444;SDS011;3764;48.126;11.594;2023-02-28T06:32:58;20.65;;;11.95;;
7444;SDS011;3764;48.126;11.594;2023-02-28T06:35:25;16.13;;;11.10;;
7444;SDS011;3764;48.126;11.594;2023-02-28T06:37:53;25.30;;;14.13;;
7444;SDS011;3764;48.126;11.594;2023-02-28T06:40:21;19.70;;;12.35;;
7444;SDS011;3764;48.126;11.594;2023-02-28T06:42:48;17.65;;;11.10;;
7444;SDS011;3764;48.126;11.594;2023-02-28T06:45:15;17.52;;;11.50;;
7444;SDS011;3764;48.126;11.594;2023-02-28T06:47:42;20.42;;;12.32;;
7444;SDS011;3764;48.126;11.594;2023-02-28T06:50:10;21.83;;;12.45;;
7444;SDS011;3764;48.126;11.594;2023-02-28T06:52:38;24.35;;;13.20;;
7444;SDS011;3764;48.126;11.594;2023-02-28T06:55:06;19.30;;;12.30;;
7444;SDS011;3764;48.126;11.594;2023-02-28T06:57:35;17.10;;;10.75;;
7444;SDS011;3764;48.126;11.594;2023-02-28T07:00:03;19.80;;;12.50;;
7444;SDS011;3764;48.126;11.594;2023-02-28T07:02:32;23.65;;;13.38;;
7444;SDS011;3764;48.126;11.594;2023-02-28T07:05:00;22.00;;;13.13;;
7444;SDS011;3764;48.126;11.594;2023-02-28T07:07:27;19.73;;;13.35;;
7444;SDS011;3764;48.126;11.594;2023-02-28T07:09:54;22.45;;;13.60;;
7444;SDS011;3764;48.126;11.594;2023-02-28T07:12:21;21.75;;;13.18;;
7444;SDS011;3764;48.126;11.594;2023-02-28T07:14:50;18.25;;;11.82;;
7444;SDS011;3764;48.126;11.594;2023-02-28T07:17:17;21.15;;;13.50;;
7444;SDS011;3764;48.126;11.594;2023-02-28T07:19:44;24.00;;;12.90;;
7444;SDS011;3764;48.126;11.594;2023-02-28T07:22:11;19.88;;;12.93;;
7444;SDS011;3764;48.126;11.594;2023-02-28T07:24:38;23.45;;;14.38;;
7444;SDS011;3764;48.126;11.594;2023-02-28T07:27:05;22.48;;;12.68;;
7444;SDS011;3764;48.126;11.594;2023-02-28T07:29:32;22.27;;;13.18;;
7444;SDS011;3764;48.126;11.594;2023-02-28T07:32:01;18.67;;;12.32;;
7444;SDS011;3764;48.126;11.594;2023-02-28T07:34:28;18.15;;;11.82;;
7444;SDS011;3764;48.126;11.594;2023-02-28T07:36:55;21.67;;;13.05;;
7444;SDS011;3764;48.126;11.594;2023-02-28T07:39:23;21.27;;;12.40;;
7444;SDS011;3764;48.126;11.594;2023-02-28T07:41:50;21.00;;;13.75;;
7444;SDS011;3764;48.126;11.594;2023-02-28T07:44:17;23.23;;;13.80;;
7444;SDS011;3764;48.126;11.594;2023-02-28T07:46:44;22.75;;;13.43;;
7444;SDS011;3764;48.126;11.594;2023-02-28T07:49:12;24.08;;;13.68;;
7444;SDS011;3764;48.126;11.594;2023-02-28T07:51:39;20.25;;;13.80;;
7444;SDS011;3764;48.126;11.594;2023-02-28T07:54:06;24.85;;;15.00;;
7444;SDS011;3764;48.126;11.594;2023-02-28T07:56:33;22.75;;;12.77;;
7444;SDS011;3764;48.126;11.594;2023-02-28T07:59:01;20.77;;;13.07;;
7444;SDS011;3764;48.126;11.594;2023-02-28T08:01:28;21.30;;;12.30;;
7444;SDS011;3764;48.126;11.594;2023-02-28T08:03:55;19.23;;;12.07;;
7444;SDS011;3764;48.126;11.594;2023-02-28T08:06:24;26.00;;;14.13;;
7444;SDS011;3764;48.126;11.594;2023-02-28T08:08:52;21.33;;;13.82;;
7444;SDS011;3764;48.126;11.594;2023-02-28T08:11:21;22.15;;;14.20;;
7444;SDS011;3764;48.126;11.594;2023-02-28T08:13:48;19.60;;;13.50;;
7444;SDS011;3764;48.126;11.594;2023-02-28T08:16:15;20.33;;;13.25;;
7444;SDS011;3764;48.126;11.594;2023-02-28T08:18:47;21.15;;;13.10;;
7444;SDS011;3764;48.126;11.594;2023-02-28T08:21:14;23.27;;;13.55;;
7444;SDS011;3764;48.126;11.594;2023-02-28T08:23:43;19.23;;;13.45;;
7444;SDS011;3764;48.126;11.594;2023-02-28T08:26:12;22.00;;;12.90;;
7444;SDS011;3764;48.126;11.594;2023-02-28T08:28:39;21.60;;;12.82;;
7444;SDS011;3764;48.126;11.594;2023-02-28T08:31:07;20.10;;;13.25;;
7444;SDS011;3764;48.126;11.594;2023-02-28T08:33:35;18.52;;;13.60;;
7444;SDS011;3764;48.126;11.594;2023-02-28T08:36:04;19.23;;;13.30;;
7444;SDS011;3764;48.126;11.594;2023-02-28T08:38:32;21.27;;;13.75;;
7444;SDS011;3764;48.126;11.594;2023-02-28T08:41:01;18.17;;;12.45;;
7444;SDS011;3764;48.126;11.594;2023-02-28T08:43:31;20.90;;;13.70;;
7444;SDS011;3764;48.126;11.594;2023-02-28T08:45:58;19.60;;;12.27;;
7444;SDS011;3764;48.126;11.594;2023-02-28T08:48:26;24.27;;;14.00;;
7444;SDS011;3764;48.126;11.594;2023-02-28T08:50:54;20.77;;;13.63;;
7444;SDS011;3764;48.126;11.594;2023-02-28T08:53:22;18.40;;;12.52;;
7444;SDS011;3764;48.126;11.594;2023-02-28T08:55:55;20.73;;;12.68;;
7444;SDS011;3764;48.126;11.594;2023-02-28T08:58:24;20.35;;;12.43;;
7444;SDS011;3764;48.126;11.594;2023-02-28T09:00:51;20.13;;;13.40;;
7444;SDS011;3764;48.126;11.594;2023-02-28T09:03:19;22.50;;;14.73;;
7444;SDS011;3764;48.126;11.594;2023-02-28T09:05:53;21.17;;;14.35;;
7444;SDS011;3764;48.126;11.594;2023-02-28T09:08:20;19.95;;;13.90;;
7444;SDS011;3764;48.126;11.594;2023-02-28T09:10:48;20.50;;;14.10;;
7444;SDS011;3764;48.126;11.594;2023-02-28T09:13:15;24.63;;;15.30;;
7444;SDS011;3764;48.126;11.594;2023-02-28T09:15:43;20.17;;;14.63;;
7444;SDS011;3764;48.126;11.594;2023-02-28T09:18:10;22.00;;;14.23;;
7444;SDS011;3764;48.126;11.594;2023-02-28T09:20:38;24.98;;;15.85;;
7444;SDS011;3764;48.126;11.594;2023-02-28T09:23:05;21.98;;;14.10;;
7444;SDS011;3764;48.126;11.594;2023-02-28T09:25:32;22.05;;;15.63;;
7444;SDS011;3764;48.126;11.594;2023-02-28T09:28:00;23.05;;;16.58;;
7444;SDS011;3764;48.126;11.594;2023-02-28T09:30:27;27.60;;;18.73;;
7444;SDS011;3764;48.126;11.594;2023-02-28T09:32:56;25.77;;;16.42;;
7444;SDS011;3764;48.126;11.594;2023-02-28T09:35:23;27.75;;;18.35;;
7444;SDS011;3764;48.126;11.594;2023-02-28T09:37:51;22.52;;;15.55;;
7444;SDS011;3764;48.126;11.594;2023-02-28T09:40:19;20.92;;;13.55;;
7444;SDS011;3764;48.126;11.594;2023-02-28T09:42:49;21.42;;;14.32;;
7444;SDS011;3764;48.126;11.594;2023-02-28T09:45:21;24.73;;;15.25;;
7444;SDS011;3764;48.126;11.594;2023-02-28T09:47:51;25.30;;;15.57;;
7444;SDS011;3764;48.126;11.594;2023-02-28T09:50:28;23.13;;;14.48;;
7444;SDS011;3764;48.126;11.594;2023-02-28T09:52:58;23.55;;;15.27;;
7444;SDS011;3764;48.126;11.594;2023-02-28T09:55:28;23.13;;;13.68;;
7444;SDS011;3764;48.126;11.594;2023-02-28T09:58:00;22.63;;;15.57;;
7444;SDS011;3764;48.126;11.594;2023-02-28T10:00:29;25.85;;;15.73;;
7444;SDS011;3764;48.126;11.594;2023-02-28T10:05:56;23.50;;;14.70;;
7444;SDS011;3764;48.126;11.594;2023-02-28T10:08:29;19.88;;;13.30;;
7444;SDS011;3764;48.126;11.594;2023-02-28T10:11:00;24.67;;;15.43;;
7444;SDS011;3764;48.126;11.594;2023-02-28T10:13:32;22.08;;;13.25;;
7444;SDS011;3764;48.126;11.594;2023-02-28T10:16:02;25.35;;;14.60;;
7444;SDS011;3764;48.126;11.594;2023-02-28T10:18:35;29.85;;;14.35;;
7444;SDS011;3764;48.126;11.594;2023-02-28T10:21:10;23.17;;;15.02;;
7444;SDS011;3764;48.126;11.594;2023-02-28T10:23:43;22.58;;;14.10;;
7444;SDS011;3764;48.126;11.594;2023-02-28T10:26:13;26.40;;;17.67;;
7444;SDS011;3764;48.126;11.594;2023-02-28T10:28:44;29.10;;;15.02;;
7444;SDS011;3764;48.126;11.594;2023-02-28T10:33:42;22.13;;;14.90;;
7444;SDS011;3764;48.126;11.594;2023-02-28T10:36:12;28.13;;;15.25;;
7444;SDS011;3764;48.126;11.594;2023-02-28T10:38:42;22.27;;;14.43;;
7444;SDS011;3764;48.126;11.594;2023-02-28T10:41:11;25.00;;;14.65;;
7444;SDS011;3764;48.126;11.594;2023-02-28T10:43:41;21.58;;;14.20;;
7444;SDS011;3764;48.126;11.594;2023-02-28T10:46:11;21.98;;;14.32;;
7444;SDS011;3764;48.126;11.594;2023-02-28T10:48:57;22.08;;;14.82;;
7444;SDS011;3764;48.126;11.594;2023-02-28T10:51:36;23.10;;;14.85;;
7444;SDS011;3764;48.126;11.594;2023-02-28T10:54:04;21.05;;;13.90;;
7444;SDS011;3764;48.126;11.594;2023-02-28T10:56:32;23.30;;;16.08;;
7444;SDS011;3764;48.126;11.594;2023-02-28T10:59:00;18.13;;;12.50;;
7444;SDS011;3764;48.126;11.594;2023-02-28T11:01:35;27.88;;;18.42;;
7444;SDS011;3764;48.126;11.594;2023-02-28T11:04:12;27.02;;;15.98;;
7444;SDS011;3764;48.126;11.594;2023-02-28T11:06:45;26.17;;;14.52;;
7444;SDS011;3764;48.126;11.594;2023-02-28T11:09:19;25.77;;;15.02;;
7444;SDS011;3764;48.126;11.594;2023-02-28T11:11:52;25.90;;;14.90;;
7444;SDS011;3764;48.126;11.594;2023-02-28T11:14:19;18.05;;;14.02;;
7444;SDS011;3764;48.126;11.594;2023-02-28T11:16:48;24.83;;;15.60;;
7444;SDS011;3764;48.126;11.594;2023-02-28T11:19:18;19.73;;;13.30;;
7444;SDS011;3764;48.126;11.594;2023-02-28T11:21:52;21.25;;;14.20;;
7444;SDS011;3764;48.126;11.594;2023-02-28T11:24:23;21.50;;;15.40;;
7444;SDS011;3764;48.126;11.594;2023-02-28T11:26:53;25.67;;;16.30;;
7444;SDS011;3764;48.126;11.594;2023-02-28T11:29:20;23.85;;;14.80;;
7444;SDS011;3764;48.126;11.594;2023-02-28T11:32:03;23.70;;;15.82;;
7444;SDS011;3764;48.126;11.594;2023-02-28T11:34:42;21.05;;;13.52;;
7444;SDS011;3764;48.126;11.594;2023-02-28T11:37:13;22.35;;;14.27;;
7444;SDS011;3764;48.126;11.594;2023-02-28T11:39:42;23.17;;;13.48;;
7444;SDS011;3764;48.126;11.594;2023-02-28T11:45:04;23.17;;;14.25;;
7444;SDS011;3764;48.126;11.594;2023-02-28T11:47:53;17.88;;;13.43;;
7444;SDS011;3764;48.126;11.594;2023-02-28T11:50:37;23.30;;;14.57;;
7444;SDS011;3764;48.126;11.594;2023-02-28T11:53:19;17.88;;;13.57;;
7444;SDS011;3764;48.126;11.594;2023-02-28T11:55:52;22.23;;;14.80;;
7444;SDS011;3764;48.126;11.594;2023-02-28T11:58:26;20.92;;;13.43;;
7444;SDS011;3764;48.126;11.594;2023-02-28T12:01:08;21.67;;;14.00;;
7444;SDS011;3764;48.126;11.594;2023-02-28T12:03:49;20.30;;;14.32;;
7444;SDS011;3764;48.126;11.594;2023-02-28T12:06:25;16.95;;;13.20;;
7444;SDS011;3764;48.126;11.594;2023-02-28T12:09:08;23.85;;;14.85;;
7444;SDS011;3764;48.126;11.594;2023-02-28T12:14:31;21.60;;;13.63;;
7444;SDS011;3764;48.126;11.594;2023-02-28T12:17:17;27.35;;;14.43;;
7444;SDS011;3764;48.126;11.594;2023-02-28T12:19:54;16.15;;;13.13;;
7444;SDS011;3764;48.126;11.594;2023-02-28T12:22:28;22.70;;;13.27;;
7444;SDS011;3764;48.126;11.594;2023-02-28T12:28:15;26.15;;;12.02;;
7444;SDS011;3764;48.126;11.594;2023-02-28T12:30:49;21.67;;;12.20;;
7444;SDS011;3764;48.126;11.594;2023-02-28T12:33:20;20.52;;;15.43;;
7444;SDS011;3764;48.126;11.594;2023-02-28T12:35:52;20.80;;;13.77;;
7444;SDS011;3764;48.126;11.594;2023-02-28T12:38:22;21.83;;;12.70;;
7444;SDS011;3764;48.126;11.594;2023-02-28T12:40:52;22.70;;;12.75;;
7444;SDS011;3764;48.126;11.594;2023-02-28T12:43:25;19.38;;;13.13;;
7444;SDS011;3764;48.126;11.594;2023-02-28T12:45:58;18.90;;;12.60;;
7444;SDS011;3764;48.126;11.594;2023-02-28T12:48:30;16.83;;;12.13;;
7444;SDS011;3764;48.126;11.594;2023-02-28T12:51:03;15.98;;;13.52;;
7444;SDS011;3764;48.126;11.594;2023-02-28T12:53:35;16.25;;;11.30;;
7444;SDS011;3764;48.126;11.594;2023-02-28T12:56:13;15.43;;;11.25;;
7444;SDS011;3764;48.126;11.594;2023-02-28T12:58:47;16.15;;;12.27;;
7444;SDS011;3764;48.126;11.594;2023-02-28T13:01:28;15.52;;;11.35;;
7444;SDS011;3764;48.126;11.594;2023-02-28T13:10:15;17.83;;;10.55;;
7444;SDS011;3764;48.126;11.594;2023-02-28T13:12:47;15.27;;;12.38;;
7444;SDS011;3764;48.126;11.594;2023-02-28T13:15:18;20.08;;;11.63;;
7444;SDS011;3764;48.126;11.594;2023-02-28T13:17:50;17.23;;;12.35;;
7444;SDS011;3764;48.126;11.594;2023-02-28T13:20:19;17.38;;;11.88;;
7444;SDS011;3764;48.126;11.594;2023-02-28T13:22:48;12.82;;;10.68;;
7444;SDS011;3764;48.126;11.594;2023-02-28T13:34:35;14.05;;;11.80;;
7444;SDS011;3764;48.126;11.594;2023-02-28T13:40:06;18.90;;;10.60;;
7444;SDS011;3764;48.126;11.594;2023-02-28T13:42:49;16.23;;;11.07;;
7444;SDS011;3764;48.126;11.594;2023-02-28T13:45:22;14.07;;;10.57;;
7444;SDS011;3764;48.126;11.594;2023-02-28T13:47:54;16.98;;;11.20;;
7444;SDS011;3764;48.126;11.594;2023-02-28T13:50:32;17.90;;;11.73;;
7444;SDS011;3764;48.126;11.594;2023-02-28T13:55:57;17.08;;;11.57;;
7444;SDS011;3764;48.126;11.594;2023-02-28T13:58:43;16.77;;;12.00;;
7444;SDS011;3764;48.126;11.594;2023-02-28T14:01:35;16.55;;;12.70;;
7444;SDS011;3764;48.126;11.594;2023-02-28T14:07:28;19.85;;;12.38;;
7444;SDS011;3764;48.126;11.594;2023-02-28T14:09:59;22.98;;;12.10;;
7444;SDS011;3764;48.126;11.594;2023-02-28T14:18:21;20.02;;;12.07;;
7444;SDS011;3764;48.126;11.594;2023-02-28T14:20:52;17.08;;;11.63;;
7444;SDS011;3764;48.126;11.594;2023-02-28T14:23:49;18.88;;;11.43;;
7444;SDS011;3764;48.126;11.594;2023-02-28T14:26:44;14.55;;;10.98;;
7444;SDS011;3764;48.126;11.594;2023-02-28T14:29:36;20.17;;;11.70;;
7444;SDS011;3764;48.126;11.594;2023-02-28T14:32:21;15.70;;;10.73;;
7444;SDS011;3764;48.126;11.594;2023-02-28T14:34:54;17.40;;;12.45;;
7444;SDS011;3764;48.126;11.594;2023-02-28T14:37:30;14.48;;;10.80;;
7444;SDS011;3764;48.126;11.594;2023-02-28T14:40:02;14.23;;;9.68;;
7444;SDS011;3764;48.126;11.594;2023-02-28T14:42:38;16.45;;;11.13;;
7444;SDS011;3764;48.126;11.594;2023-02-28T14:45:16;16.02;;;11.32;;
7444;SDS011;3764;48.126;11.594;2023-02-28T14:47:45;17.77;;;11.05;;
7444;SDS011;3764;48.126;11.594;2023-02-28T14:50:17;18.27;;;11.93;;
7444;SDS011;3764;48.126;11.594;2023-02-28T14:52:45;17.80;;;11.90;;
7444;SDS011;3764;48.126;11.594;2023-02-28T14:55:14;15.98;;;10.98;;
7444;SDS011;3764;48.126;11.594;2023-02-28T14:57:50;13.80;;;10.18;;
7444;SDS011;3764;48.126;11.594;2023-02-28T15:00:21;13.82;;;9.98;;
7444;SDS011;3764;48.126;11.594;2023-02-28T15:02:50;17.58;;;10.75;;
7444;SDS011;3764;48.126;11.594;2023-02-28T15:05:25;15.25;;;9.43;;
7444;SDS011;3764;48.126;11.594;2023-02-28T15:08:02;15.00;;;10.68;;
7444;SDS011;3764;48.126;11.594;2023-02-28T15:10:33;16.60;;;10.60;;
7444;SDS011;3764;48.126;11.594;2023-02-28T15:13:01;21.25;;;11.23;;
7444;SDS011;3764;48.126;11.594;2023-02-28T15:15:35;14.73;;;10.70;;
7444;SDS011;3764;48.126;11.594;2023-02-28T15:18:10;16.50;;;11.07;;
7444;SDS011;3764;48.126;11.594;2023-02-28T15:20:48;12.85;;;9.73;;
7444;SDS011;3764;48.126;11.594;2023-02-28T15:23:16;14.40;;;10.60;;
7444;SDS011;3764;48.126;11.594;2023-02-28T15:25:46;17.45;;;10.88;;
7444;SDS011;3764;48.126;11.594;2023-02-28T15:28:14;14.82;;;10.23;;
7444;SDS011;3764;48.126;11.594;2023-02-28T15:30:53;15.70;;;11.13;;
7444;SDS011;3764;48.126;11.594;2023-02-28T15:33:23;14.32;;;10.95;;
7444;SDS011;3764;48.126;11.594;2023-02-28T15:35:51;15.75;;;11.10;;
7444;SDS011;3764;48.126;11.594;2023-02-28T15:38:33;15.57;;;11.75;;
7444;SDS011;3764;48.126;11.594;2023-02-28T15:41:03;17.50;;;10.30;;
7444;SDS011;3764;48.126;11.594;2023-02-28T15:43:34;15.60;;;10.20;;
7444;SDS011;3764;48.126;11.594;2023-02-28T15:46:02;14.75;;;10.40;;
7444;SDS011;3764;48.126;11.594;2023-02-28T15:48:33;15.95;;;10.20;;
7444;SDS011;3764;48.126;11.594;2023-02-28T15:51:02;14.60;;;10.55;;
7444;SDS011;3764;48.126;11.594;2023-02-28T15:53:35;15.93;;;11.02;;
7444;SDS011;3764;48.126;11.594;2023-02-28T15:56:06;17.52;;;11.48;;
7444;SDS011;3764;48.126;11.594;2023-02-28T15:58:46;13.35;;;9.90;;
7444;SDS011;3764;48.126;11.594;2023-02-28T16:01:18;18.05;;;11.98;;
7444;SDS011;3764;48.126;11.594;2023-02-28T16:03:48;16.58;;;11.02;;